Urbanna, VA (23175)

9:03 PM EDT on August 27, 2015 (GMT -0400)
Remlik Hall Farm | | Change Station
CLOSE
Current Station
Personal Weather Station
Location: Urbanna, VA
Elevation: 15 ft
Nearby Weather Stations

Elev 15 ft 37.67 °N, 76.60 °W | Updated 5 minutes ago

Partly Cloudy
Partly Cloudy
69.4 °F
Feels Like 69.4 °F
N
0.0
Wind Variable Wind from WSW

Today
High -- | Low -- °F
--% Chance of Precip.
Yesterday
High -- | Low -- °F
Precip. -- in
6:32 AM 7:43 PM
Waxing Gibbous, 96% visible
Pressure 30.13 in
Visibility 10.0 miles
Clouds Clear
Dew Point 60 °F
Humidity 73%
Rainfall 0.00 in
Snow Depth Not available.
UV 0 out of 12
Pollen 8.90 out of 12
Air Quality Not available.
Flu Activity Not available.
METAR KFYJ 280055Z AUTO 00000KT 10SM CLR 21/15 A3013 RMK AO2 T02080148
Pressure 30.13 in
Visibility 10.0 miles
Clouds Clear
Dew Point 60 °F
Humidity 73%
Rainfall 0.00 in
Snow Depth Not available.
UV 0 out of 12
Pollen 8.90 out of 12
Air Quality Not available.
Flu Activity Not available.
METAR KFYJ 280055Z AUTO 00000KT 10SM CLR 21/15 A3013 RMK AO2 T02080148

10-Day Weather Forecast

×

Almanac

Astronomy

Aug. 27, 2015 Rise Set
Actual Time
Civil Twilight
Nautical Twilight
Astronomical Twilight
Moon
Length of Visible Light
Length of Day
Tomorrow will be .
, % of the Moon is Illuminated

Today's Extremes

State Highs State Lows

Community

WunderPhotos

Upload Photos

1,850,288 photos uploaded!

WunderBlogs® & News

Nearby

Air Quality

  Air Quality AQ Index Pollutant
Not available.

Snow Depth

Station Depth Elevation

Earthquake Activity

City Distance Mag. Time & Date
Minimum magnitude displayed is 2.5.

Coastal Water Temperatures

Place Temperature

Stations

Nearby Weather Stations

Station Location Temp. Windchill Dew Point Humidity Wind Precip. Elev Updated Type